Latest Coastal Weather Observations for Swanbourne

IDW60701

Issued at 1:52 pm WST Sunday 29 May 2016 (issued every 10 minutes, with the page automatically refreshed every 10 minutes)

About coastal observations | Map of coastal stations | Coastal observations for WA | Marine services | Other Formats
Station Details ID: 009215 Name: SWANBOURNE Lat: -31.96 Lon: 115.76 Height: 40.96 m
Data from the previous 72 hours. | See also: Recent months at Swanbourne
Date/Time
WST
Temp

°C
Wind Pressure Rain
since 9am
mm
Weather Cloud Vis
km
Sea
Height
m
Swell
Dir
 
Speed
knots
Gust
knots
hPa Trend Height
m
Period
s
Dir
29/01:30pm 17.7 SE 4 7 - - 0.0 - - - - - - -
29/01:00pm 17.9 E 2 4 - - 0.0 - - - - - - -
29/12:30pm 18.2 ENE 5 9 - - 0.0 - - - - - - -
29/12:00pm 16.6 NW 4 7 - - 0.0 - - - - - - -
29/11:30am 17.2 E 1 5 - - 0.0 - - - - - - -
29/11:00am 16.8 ESE 2 5 - - 0.0 - - - - - - -
29/10:30am 16.6 ENE 3 5 - - 0.0 - - - - - - -
29/10:00am 15.4 NE 2 4 - - 0.0 - - - - - - -
29/09:30am 14.4 E 3 5 - - 0.0 - - - - - - -
29/09:00am 13.5 E 4 6 - - 0.0 - - - - - - -
29/08:30am 13.0 ESE 4 6 - - 0.0 - - - - - - -
29/08:00am 12.0 ESE 4 6 - - 0.0 - - - - - - -
29/07:30am 11.9 E 4 5 - - 0.0 - - - - - - -
29/07:00am 12.1 ESE 4 5 - - 0.0 - - - - - - -
29/06:30am 12.3 ESE 4 5 - - 0.0 - - - - - - -
29/06:00am 12.1 E 2 3 - - 0.0 - - - - - - -
29/05:30am 12.5 E 2 3 - - 0.0 - - - - - - -
29/05:00am 12.8 E 3 3 - - 0.0 - - - - - - -
29/04:30am 12.9 ENE 3 3 - - 0.0 - - - - - - -
29/04:00am 13.2 NE 1 1 - - 0.0 - - - - - - -
29/03:30am 13.2 ENE 2 2 - - 0.0 - - - - - - -
29/03:00am 13.2 CALM 0 1 - - 0.0 - - - - - - -
29/02:30am 13.3 E 2 3 - - 0.0 - - - - - - -
29/02:00am 13.3 ENE 3 5 - - 0.0 - - - - - - -
29/01:30am 13.4 ENE 3 4 - - 0.0 - - - - - - -
29/01:00am 13.6 ENE 4 5 - - 0.0 - - - - - - -
29/12:30am 13.5 ENE 3 3 - - 0.0 - - - - - - -
29/12:00am 13.7 NE 3 4 - - 0.0 - - - - - - -
 
Date/Time
WST
Temp

°C
Wind Pressure Rain
since 9am
mm
Weather Cloud Vis
km
Sea
Height
m
Swell
Dir
 
Speed
knots
Gust
knots
hPa Trend Height
m
Period
s
Dir
28/11:30pm 13.8 ESE 1 3 - - 0.0 - - - - - - -
28/11:00pm 13.9 E 4 5 - - 0.0 - - - - - - -
28/10:30pm 14.0 E 3 4 - - 0.0 - - - - - - -
28/10:00pm 14.1 SE 3 4 - - 0.0 - - - - - - -
28/09:30pm 14.0 SSE 5 8 - - 0.0 - - - - - - -
28/09:00pm 13.8 ESE 5 6 - - 0.0 - - - - - - -
28/08:30pm 14.4 SE 4 5 - - 0.0 - - - - - - -
28/08:00pm 15.1 SSE 5 8 - - 0.0 - - - - - - -
28/07:30pm 15.5 SSW 9 13 - - 0.0 - - - - - - -
28/07:00pm 15.2 SSE 6 11 - - 0.0 - - - - - - -
28/06:30pm 14.5 NW 3 6 - - 0.0 - - - - - - -
28/06:00pm 15.1 SSE 4 6 - - 0.0 - - - - - - -
28/05:30pm 15.6 S 7 10 - - 0.0 - - - - - - -
28/05:00pm 16.3 S 6 10 - - 0.0 - - - - - - -
28/04:30pm 17.5 SSW 9 13 - - 0.0 - - - - - - -
28/04:00pm 18.5 WSW 11 15 - - 0.0 - - - - - - -
28/03:30pm 19.0 WSW 12 17 - - 0.0 - - - - - - -
28/03:00pm 19.3 WSW 10 15 - - 0.0 - - - - - - -
28/02:30pm 19.4 WSW 11 16 - - 0.0 - - - - - - -
28/02:00pm 18.5 WSW 10 15 - - 0.0 - - - - - - -
28/01:30pm 19.6 WSW 10 15 - - 0.0 - - - - - - -
28/01:00pm 19.5 WSW 11 16 - - 0.0 - - - - - - -
28/12:30pm 19.2 WSW 12 17 - - 0.0 - - - - - - -
28/12:00pm 19.4 WSW 12 18 - - 0.0 - - - - - - -
28/11:30am 18.4 W 11 15 - - 0.0 - - - - - - -
28/11:00am 18.0 SW 11 15 - - 0.0 - - - - - - -
28/10:30am 18.1 SW 16 23 - - 0.0 - - - - - - -
28/10:00am 19.2 WSW 12 19 - - 0.0 - - - - - - -
28/09:30am 18.6 WSW 14 19 - - 0.0 - - - - - - -
28/09:00am 18.2 WSW 14 18 - - 4.2 - - - - - - -
28/08:30am 17.8 WSW 14 19 - - 4.2 - - - - - - -
28/08:00am 17.4 WSW 16 22 - - 4.2 - - - - - - -
28/07:30am 17.1 WSW 12 19 - - 4.2 - - - - - - -
28/07:00am 17.0 WSW 16 23 - - 4.2 - - - - - - -
28/06:30am 17.1 WSW 14 19 - - 4.2 - - - - - - -
28/06:00am 17.2 WSW 14 20 - - 4.2 - - - - - - -
28/05:30am 16.9 WSW 15 20 - - 4.2 - - - - - - -
28/05:00am 16.4 WSW 14 21 - - 4.2 - - - - - - -
28/04:30am 15.9 WSW 16 22 - - 4.2 - - - - - - -
28/04:00am 16.5 WNW 10 16 - - 3.0 - - - - - - -
28/03:30am 17.1 NW 17 28 - - 1.0 - - - - - - -
28/03:27am 17.3 NW 15 26 - - 0.8 - - - - - - -
28/03:26am 17.4 NW 15 25 - - 0.6 - - - - - - -
28/03:00am 16.1 N 9 15 - - 0.4 - - - - - - -
28/02:30am 16.0 N 10 17 - - 0.4 - - - - - - -
28/02:00am 15.7 N 10 13 - - 0.4 - - - - - - -
28/01:30am 15.5 N 10 17 - - 0.4 - - - - - - -
28/01:00am 14.6 N 8 11 - - 0.4 - - - - - - -
28/12:30am 14.6 N 6 9 - - 0.4 - - - - - - -
28/12:00am 14.7 N 6 9 - - 0.4 - - - - - - -
 
Date/Time
WST
Temp

°C
Wind Pressure Rain
since 9am
mm
Weather Cloud Vis
km
Sea
Height
m
Swell
Dir
 
Speed
knots
Gust
knots
hPa Trend Height
m
Period
s
Dir
27/11:30pm 14.8 NNE 6 8 - - 0.4 - - - - - - -
27/11:00pm 14.5 NE 5 8 - - 0.4 - - - - - - -
27/10:30pm 15.1 NNE 5 6 - - 0.4 - - - - - - -
27/10:00pm 14.3 NE 4 5 - - 0.4 - - - - - - -
27/09:30pm 14.7 ENE 3 4 - - 0.4 - - - - - - -
27/09:00pm 15.4 NE 3 4 - - 0.4 Recent precip. - - - - - -
27/08:30pm 15.6 NW 5 7 - - 0.4 - - - - - - -
27/08:00pm 17.5 NW 10 17 - - 0.0 - - - - - - -
27/07:30pm 17.9 NNW 5 8 - - 0.0 - - - - - - -
27/07:00pm 17.8 N 3 6 - - 0.0 - - - - - - -
27/06:30pm 17.9 N 3 4 - - 0.0 - - - - - - -
27/06:00pm 18.2 N 3 5 - - 0.0 - - - - - - -
27/05:30pm 18.0 NE 3 5 - - 0.0 - - - - - - -
27/05:00pm 18.6 NNE 6 10 - - 0.0 - - - - - - -
27/04:30pm 19.1 NNE 7 12 - - 0.0 - - - - - - -
27/04:00pm 19.9 N 8 11 - - 0.0 - - - - - - -
27/03:30pm 20.6 NNE 5 9 - - 0.0 - - - - - - -
27/03:00pm 20.5 NNE 5 9 - - 0.0 - - - - - - -
27/02:30pm 20.6 NNE 6 9 - - 0.0 - - - - - - -
27/02:00pm 20.5 NW 7 10 - - 0.0 - - - - - - -
27/01:30pm 20.4 NW 6 9 - - 0.0 - - - - - - -
27/01:00pm 20.1 NW 8 10 - - 0.0 - - - - - - -
27/12:30pm 20.5 NNW 6 9 - - 0.0 - - - - - - -
27/12:00pm 19.4 N 7 11 - - 0.0 - - - - - - -
27/11:30am 18.9 NE 6 9 - - 0.0 - - - - - - -
27/11:00am 18.2 NE 5 9 - - 0.0 - - - - - - -
27/10:30am 16.8 NE 6 10 - - 0.0 - - - - - - -
27/10:00am 15.5 NE 6 11 - - 0.0 - - - - - - -
27/09:30am 14.9 ENE 6 9 - - 0.0 - - - - - - -
27/09:00am 13.2 ENE 7 9 - - 0.2 - - - - - - -
27/08:30am 11.5 ENE 7 11 - - 0.2 - - - - - - -
27/08:00am 10.2 ENE 8 11 - - 0.2 - - - - - - -
27/07:30am 9.5 ENE 7 10 - - 0.2 - - - - - - -
27/07:00am 9.6 ENE 7 10 - - 0.2 - - - - - - -
27/06:30am 9.5 ENE 7 8 - - 0.2 - - - - - - -
27/06:00am 9.4 ENE 7 10 - - 0.2 - - - - - - -
27/05:30am 9.7 ENE 7 9 - - 0.2 - - - - - - -
27/05:00am 10.0 ENE 7 10 - - 0.2 - - - - - - -
27/04:30am 10.3 ENE 7 10 - - 0.2 - - - - - - -
27/04:00am 10.0 ENE 6 10 - - 0.2 - - - - - - -
27/03:30am 9.6 ENE 6 8 - - 0.2 - - - - - - -
27/03:00am 9.5 E 6 8 - - 0.2 - - - - - - -
27/02:30am 9.6 ENE 6 8 - - 0.2 - - - - - - -
27/02:00am 9.7 ENE 6 7 - - 0.2 - - - - - - -
27/01:30am 10.1 ENE 5 7 - - 0.2 - - - - - - -
27/01:00am 10.3 ENE 5 8 - - 0.2 - - - - - - -
27/12:30am 10.5 ENE 5 7 - - 0.2 - - - - - - -
27/12:00am 10.8 ENE 5 6 - - 0.2 - - - - - - -
 
Date/Time
WST
Temp

°C
Wind Pressure Rain
since 9am
mm
Weather Cloud Vis
km
Sea
Height
m
Swell
Dir
 
Speed
knots
Gust
knots
hPa Trend Height
m
Period
s
Dir
26/11:30pm 11.1 ENE 5 6 - - 0.2 - - - - - - -
26/11:00pm 11.6 E 5 5 - - 0.2 - - - - - - -
26/10:30pm 12.0 ENE 5 5 - - 0.2 - - - - - - -
26/10:00pm 12.6 ENE 5 5 - - 0.2 - - - - - - -
26/09:30pm 12.9 ENE 4 5 - - 0.2 - - - - - - -
26/09:00pm 13.6 E 4 4 - - 0.2 - - - - - - -
26/08:30pm 14.0 ESE 4 5 - - 0.2 - - - - - - -
26/08:00pm 14.1 ESE 4 4 - - 0.2 - - - - - - -
26/07:30pm 14.7 ESE 4 4 - - 0.2 - - - - - - -
26/07:00pm 15.0 SE 3 4 - - 0.2 - - - - - - -
26/06:30pm 15.2 SE 3 4 - - 0.2 - - - - - - -
26/06:00pm 15.2 SE 4 5 - - 0.2 - - - - - - -
26/05:30pm 15.6 S 5 7 - - 0.2 - - - - - - -
26/05:00pm 16.2 S 5 6 - - 0.2 - - - - - - -
26/04:30pm 16.8 S 5 9 - - 0.2 - - - - - - -
26/04:00pm 17.2 S 7 11 - - 0.2 - - - - - - -
26/03:30pm 17.4 SSW 8 11 - - 0.2 - - - - - - -
26/03:00pm 17.8 SSW 5 9 - - 0.2 - - - - - - -
26/02:30pm 18.3 SSW 5 8 - - 0.2 - - - - - - -
26/02:00pm 18.0 SSW 4 8 - - 0.2 - - - - - - -

Other Formats:

Comma delimited format used in spreadsheet applications
http://www.bom.gov.au/fwo/IDW60701/IDW60701.94614.axf

JavaScript Object Notation format (JSON) in row-major order
http://www.bom.gov.au/fwo/IDW60701/IDW60701.94614.json